Rostov-na-Donu, Russia
Current Conditions -  °F | °C
As of 2:00 AM on Friday 21 Nov 2014 (Local Time) from URRR Reporting Station
Clear Clear  
Wind Chill: 11°   Ceiling: Unl
Heat Index: 25°   Visibility: 5mi
Dew Point: 16°   Wind: 18mph
Humidity: 69%   Direction: 80°E
Pressure: 30.33"   Gusts: 27mph
Location:  47.24°N, 39.71°E
Report Text: URRR 202300Z 08008G12MPS P8000 NSC M04/M09 Q1027 04CLRD70 TEMPO08012G17MPS
Loading
Personal Weather Stations






























Interactive Weather Map New forecast layout! Learn more

10-Day Weather Forecast

Advertisements
Track Severe Weather on mobile